Time;durP1;ratioP1;P1;durP2;ratioP2;P2;SDS_P1;SDS_P2;PMS_P1;PMS_P2;Temp;Humidity;BMP_temperature;BMP_pressure;BME280_temperature;BME280_humidity;BME280_pressure;Samples;Min_cycle;Max_cycle;Signal;HPM_P1;HPM_P2
2022/11/03 00:00:09;;;;;;;11.73;4.93;;;12.10;99.90;;;;;;5020788;28;20037;-73
2022/11/03 00:02:35;;;;;;;10.82;4.75;;;12.10;99.90;;;;;;5033897;28;20496;-71
2022/11/03 00:06:03;;;;;;;14.90;4.70;;;12.10;99.90;;;;;;5036379;28;20032;-71
2022/11/03 00:07:46;;;;;;;10.57;4.00;;;12.10;99.90;;;;;;5028996;28;20069;-71
2022/11/03 00:10:12;;;;;;;12.00;4.18;;;12.10;99.90;;;;;;5031119;28;20056;-71
2022/11/03 00:12:37;;;;;;;12.43;5.57;;;12.20;99.90;;;;;;5036551;28;20060;-71
2022/11/03 00:15:03;;;;;;;8.23;4.40;;;12.20;99.90;;;;;;5039938;28;20402;-71
2022/11/03 00:17:29;;;;;;;10.77;4.38;;;12.10;99.90;;;;;;5033304;28;20111;-71
2022/11/03 00:19:54;;;;;;;9.60;4.07;;;12.00;99.90;;;;;;5033943;28;20132;-71
2022/11/03 00:22:20;;;;;;;12.50;4.22;;;12.00;99.90;;;;;;5040937;28;20029;-71
2022/11/03 00:24:46;;;;;;;13.52;4.43;;;12.00;99.90;;;;;;5038591;28;20032;-71
2022/11/03 00:27:11;;;;;;;13.52;5.05;;;11.90;99.90;;;;;;5038048;28;20032;-70
2022/11/03 00:29:37;;;;;;;9.07;4.55;;;11.90;99.90;;;;;;5029683;28;20022;-71
2022/11/03 00:32:03;;;;;;;20.95;4.30;;;11.80;99.90;;;;;;5030277;28;20037;-71
2022/11/03 00:34:28;;;;;;;11.85;4.68;;;11.60;99.90;;;;;;5042522;28;20076;-71
2022/11/03 00:36:54;;;;;;;10.10;4.13;;;11.50;99.90;;;;;;5038584;28;20029;-71
2022/11/03 00:39:20;;;;;;;12.57;4.57;;;11.40;99.90;;;;;;5037260;28;20041;-70
2022/11/03 00:41:45;;;;;;;12.48;4.93;;;11.50;99.90;;;;;;5038633;28;20116;-70
2022/11/03 00:44:12;;;;;;;12.65;4.20;;;11.50;99.90;;;;;;5031827;28;20029;-71
2022/11/03 00:46:37;;;;;;;15.77;4.07;;;11.50;99.90;;;;;;5037885;28;20120;-70
2022/11/03 00:49:04;;;;;;;9.38;4.05;;;11.60;99.90;;;;;;5042320;28;20338;-71
2022/11/03 00:51:29;;;;;;;11.82;4.85;;;11.70;99.90;;;;;;5047639;28;20475;-71
2022/11/03 00:53:58;;;;;;;11.07;4.15;;;11.70;99.90;;;;;;5037457;28;20025;-71
2022/11/03 00:56:27;;;;;;;17.52;5.53;;;11.80;99.90;;;;;;5041753;28;20033;-71
2022/11/03 00:58:53;;;;;;;14.25;4.50;;;11.80;99.90;;;;;;5051048;28;20043;-71
2022/11/03 01:01:21;;;;;;;10.13;4.32;;;11.90;99.90;;;;;;5037909;28;20036;-70
2022/11/03 01:06:49;;;;;;;12.57;4.97;;;11.90;99.90;;;;;;5036673;28;20048;-70
2022/11/03 01:09:21;;;;;;;10.93;4.47;;;11.90;99.90;;;;;;5045880;28;20028;-71
2022/11/03 01:11:53;;;;;;;12.70;4.82;;;11.70;99.90;;;;;;5037916;28;20030;-71
2022/11/03 01:14:19;;;;;;;15.50;5.28;;;11.70;99.90;;;;;;5038235;28;20048;-71
2022/11/03 01:16:45;;;;;;;16.85;5.68;;;11.60;99.90;;;;;;5032543;28;20072;-71
2022/11/03 01:19:10;;;;;;;12.13;4.55;;;11.60;99.90;;;;;;5037933;28;20391;-70
2022/11/03 01:21:36;;;;;;;13.70;4.30;;;11.60;99.90;;;;;;5044136;28;20036;-71
2022/11/03 01:24:03;;;;;;;13.90;5.32;;;11.60;99.90;;;;;;5036344;28;20029;-71
2022/11/03 01:26:30;;;;;;;14.05;4.85;;;11.60;99.90;;;;;;5045537;28;20120;-71
2022/11/03 01:28:57;;;;;;;12.80;4.50;;;11.70;99.90;;;;;;5043627;28;20025;-71
2022/11/03 01:31:24;;;;;;;8.77;4.50;;;11.70;99.90;;;;;;5034286;28;20036;-70
2022/11/03 01:33:52;;;;;;;12.10;4.65;;;11.80;99.90;;;;;;5034427;28;20033;-71
2022/11/03 01:36:18;;;;;;;16.83;4.80;;;11.80;99.90;;;;;;5042334;28;20088;-71
2022/11/03 01:38:45;;;;;;;10.05;5.00;;;11.90;99.90;;;;;;5043611;28;20029;-71
2022/11/03 01:41:16;;;;;;;11.35;4.40;;;11.80;99.90;;;;;;5040013;28;20025;-70
2022/11/03 01:43:42;;;;;;;10.52;3.97;;;11.80;99.90;;;;;;5041812;28;20032;-71
2022/11/03 01:46:24;;;;;;;14.90;4.53;;;11.70;99.90;;;;;;5037119;28;20578;-71
2022/11/03 01:49:07;;;;;;;12.48;5.38;;;11.60;99.90;;;;;;5042900;28;20129;-70
2022/11/03 01:51:35;;;;;;;11.05;5.32;;;11.70;99.90;;;;;;5041177;28;20032;-70
2022/11/03 01:54:07;;;;;;;11.52;4.47;;;11.70;99.90;;;;;;5033845;28;20376;-71
2022/11/03 01:56:37;;;;;;;10.30;4.35;;;11.60;99.90;;;;;;5027477;28;20391;-71
2022/11/03 01:59:03;;;;;;;11.93;4.78;;;11.60;99.90;;;;;;5031836;28;20045;-70
2022/11/03 02:01:30;;;;;;;16.50;4.53;;;11.60;99.90;;;;;;5043944;28;20108;-71
2022/11/03 02:04:26;;;;;;;13.23;5.60;;;11.40;99.90;;;;;;5040242;28;20091;-70
2022/11/03 02:07:21;;;;;;;16.40;4.70;;;11.50;99.90;;;;;;5040656;28;20029;-71
2022/11/03 02:09:46;;;;;;;11.82;4.15;;;11.60;99.90;;;;;;5024376;28;20399;-70
2022/11/03 02:12:13;;;;;;;10.68;4.28;;;11.60;99.90;;;;;;5044160;28;20029;-71
2022/11/03 02:14:48;;;;;;;15.88;5.53;;;11.70;99.90;;;;;;5037237;28;20029;-71
2022/11/03 02:17:15;;;;;;;16.92;4.47;;;11.60;99.90;;;;;;5034214;28;20048;-71
2022/11/03 02:19:49;;;;;;;15.10;4.97;;;11.50;99.90;;;;;;5037184;28;20037;-71
2022/11/03 02:22:37;;;;;;;15.88;5.32;;;11.50;99.90;;;;;;5041482;28;20033;-70
2022/11/03 02:25:30;;;;;;;14.63;5.55;;;11.50;99.90;;;;;;5042330;28;20108;-71
2022/11/03 02:27:57;;;;;;;8.55;4.63;;;11.60;99.90;;;;;;5036530;28;20072;-70
2022/11/03 02:30:24;;;;;;;16.50;5.68;;;11.50;99.90;;;;;;5033872;28;20100;-71
2022/11/03 02:33:25;;;;;;;13.80;5.18;;;11.40;99.90;;;;;;5042239;28;20029;-71
2022/11/03 02:36:06;;;;;;;9.35;4.63;;;11.40;99.90;;;;;;4946158;29;20511;-70
2022/11/03 02:38:37;;;;;;;9.75;4.70;;;11.30;99.90;;;;;;5028446;28;20050;-71
2022/11/03 02:41:06;;;;;;;10.57;4.20;;;11.30;99.90;;;;;;5035835;28;20397;-71
2022/11/03 02:43:32;;;;;;;9.38;4.45;;;11.20;99.90;;;;;;5043618;28;20150;-71
2022/11/03 02:45:59;;;;;;;15.52;6.40;;;11.10;99.90;;;;;;5040357;28;20395;-70
2022/11/03 02:48:25;;;;;;;11.82;4.32;;;11.20;99.90;;;;;;5034335;28;20039;-70
2022/11/03 02:50:51;;;;;;;14.77;4.93;;;11.20;99.90;;;;;;5040816;28;20036;-71
2022/11/03 02:53:16;;;;;;;9.38;4.25;;;11.30;99.90;;;;;;5038044;28;20057;-71
2022/11/03 02:55:52;;;;;;;16.00;5.38;;;11.40;99.90;;;;;;5030481;28;20489;-70
2022/11/03 02:58:34;;;;;;;12.60;4.50;;;11.40;99.90;;;;;;5038262;28;20025;-71
2022/11/03 03:01:15;;;;;;;18.55;5.32;;;11.40;99.90;;;;;;5040004;28;20428;-71
2022/11/03 03:03:47;;;;;;;13.68;4.65;;;11.50;99.90;;;;;;5031410;28;20026;-71
2022/11/03 03:06:25;;;;;;;15.73;5.85;;;11.60;99.90;;;;;;5035855;28;20027;-71
2022/11/03 03:08:56;;;;;;;14.90;4.90;;;11.60;99.90;;;;;;5037763;28;20025;-70
2022/11/03 03:11:35;;;;;;;9.88;4.18;;;11.50;99.90;;;;;;5041899;28;20064;-71
2022/11/03 03:14:11;;;;;;;13.07;4.35;;;11.60;99.90;;;;;;5031345;28;20033;-70
2022/11/03 03:16:51;;;;;;;13.50;5.15;;;11.50;99.90;;;;;;5033447;28;20037;-71
2022/11/03 03:19:27;;;;;;;11.35;4.63;;;11.50;99.90;;;;;;5039541;28;20036;-70
2022/11/03 03:21:57;;;;;;;17.35;5.80;;;11.50;99.90;;;;;;5040639;28;20032;-70
2022/11/03 03:24:45;;;;;;;15.20;4.38;;;11.50;99.90;;;;;;5048678;28;20498;-71
2022/11/03 03:27:13;;;;;;;14.95;4.75;;;11.40;99.90;;;;;;5033185;28;20040;-70
2022/11/03 03:29:50;;;;;;;13.27;4.88;;;11.50;99.90;;;;;;5041703;28;20040;-70
2022/11/03 03:32:20;;;;;;;14.25;4.50;;;11.50;99.90;;;;;;5032993;28;20033;-71
2022/11/03 03:34:48;;;;;;;11.20;4.70;;;11.60;99.90;;;;;;5029776;28;20049;-71
2022/11/03 03:37:16;;;;;;;12.52;4.03;;;11.60;99.90;;;;;;5040710;28;20044;-71
2022/11/03 03:39:47;;;;;;;10.32;4.15;;;11.60;99.90;;;;;;5036373;28;20048;-71
2022/11/03 03:42:14;;;;;;;11.98;5.55;;;11.60;99.90;;;;;;5042951;28;20061;-71
2022/11/03 03:44:41;;;;;;;13.68;5.13;;;11.70;99.90;;;;;;5032393;28;20431;-71
2022/11/03 03:47:31;;;;;;;12.85;5.85;;;11.70;99.90;;;;;;5028115;28;20029;-71
2022/11/03 03:49:57;;;;;;;16.75;5.78;;;11.60;99.90;;;;;;5038107;28;20048;-70
2022/11/03 03:52:24;;;;;;;18.13;5.45;;;11.60;99.90;;;;;;5039946;28;20025;-70
2022/11/03 03:54:50;;;;;;;13.15;5.05;;;11.60;99.90;;;;;;5030449;28;20360;-70
2022/11/03 03:57:19;;;;;;;10.05;4.72;;;11.60;99.90;;;;;;5042513;28;20033;-71
2022/11/03 03:59:45;;;;;;;13.98;5.03;;;11.70;99.90;;;;;;5039665;28;20044;-70
2022/11/03 04:02:11;;;;;;;10.35;4.28;;;11.60;99.90;;;;;;5043484;28;20033;-71
2022/11/03 04:04:37;;;;;;;15.55;5.82;;;11.60;99.90;;;;;;5031671;28;20029;-71
2022/11/03 04:09:48;;;;;;;11.63;4.78;;;11.70;99.90;;;;;;5032924;28;20074;-71
2022/11/03 04:23:12;;;;;;;8.82;4.50;;;11.70;99.90;;;;;;5030234;28;20048;-71
2022/11/03 04:25:38;;;;;;;12.35;4.47;;;11.80;99.90;;;;;;5035894;28;20045;-71
2022/11/03 04:28:12;;;;;;;15.20;4.93;;;11.80;99.90;;;;;;5033799;28;20136;-71
2022/11/03 04:30:38;;;;;;;11.73;5.35;;;11.80;99.90;;;;;;5027771;28;20026;-71
2022/11/03 04:33:19;;;;;;;13.80;3.97;;;11.80;99.90;;;;;;5046670;28;20094;-72
2022/11/03 04:35:46;;;;;;;13.48;4.70;;;11.70;99.90;;;;;;5037829;28;20070;-71
2022/11/03 04:38:14;;;;;;;9.15;3.92;;;11.70;99.90;;;;;;5043081;28;20044;-70
2022/11/03 04:40:54;;;;;;;17.60;4.20;;;11.80;99.90;;;;;;5041933;28;20021;-71
2022/11/03 04:43:28;;;;;;;13.50;5.57;;;11.80;99.90;;;;;;5045118;28;20136;-71
2022/11/03 04:45:54;;;;;;;9.38;4.78;;;11.70;99.90;;;;;;5037911;28;20029;-71
2022/11/03 04:48:24;;;;;;;21.33;5.38;;;11.60;99.90;;;;;;5034047;28;20036;-72
2022/11/03 04:50:53;;;;;;;11.88;5.13;;;11.50;99.90;;;;;;5033694;28;20028;-71
2022/11/03 04:53:20;;;;;;;11.35;5.10;;;11.50;99.90;;;;;;5038294;28;20029;-71
2022/11/03 04:55:48;;;;;;;9.68;4.43;;;11.50;99.90;;;;;;5046536;28;20037;-71
2022/11/03 04:58:20;;;;;;;12.13;4.38;;;11.50;99.90;;;;;;5034080;28;20127;-72
2022/11/03 05:00:55;;;;;;;11.85;4.40;;;11.60;99.90;;;;;;5032396;28;20029;-71
2022/11/03 05:03:24;;;;;;;10.02;5.30;;;11.60;99.90;;;;;;5034754;28;20082;-71
2022/11/03 05:05:50;;;;;;;9.65;4.70;;;11.50;99.90;;;;;;5027831;28;20092;-72
2022/11/03 05:08:20;;;;;;;10.82;4.40;;;11.40;99.90;;;;;;5028642;28;20052;-72
2022/11/03 05:10:47;;;;;;;9.63;5.05;;;11.40;99.90;;;;;;5030696;28;20095;-71
2022/11/03 05:13:23;;;;;;;9.48;3.95;;;11.50;99.90;;;;;;5040890;28;20041;-72
2022/11/03 05:15:51;;;;;;;10.30;4.88;;;11.60;99.90;;;;;;5023313;28;20053;-71
2022/11/03 05:18:20;;;;;;;13.63;4.85;;;11.60;99.90;;;;;;5026278;28;20021;-71
2022/11/03 05:21:08;;;;;;;9.85;4.07;;;11.40;99.90;;;;;;5029291;28;20053;-71
2022/11/03 05:23:43;;;;;;;15.18;5.20;;;11.20;99.90;;;;;;5038906;28;20040;-73
2022/11/03 05:26:21;;;;;;;13.65;4.63;;;11.30;99.90;;;;;;5037127;28;20025;-72
2022/11/03 05:29:03;;;;;;;11.80;4.85;;;11.40;99.90;;;;;;5040543;28;20036;-71
2022/11/03 05:31:31;;;;;;;12.45;4.40;;;11.40;99.90;;;;;;5027492;28;21239;-72
2022/11/03 05:34:01;;;;;;;10.75;4.25;;;11.40;99.90;;;;;;5031652;28;20041;-71
2022/11/03 05:36:29;;;;;;;15.85;5.20;;;11.30;99.90;;;;;;5037149;28;20028;-72
2022/11/03 05:38:59;;;;;;;9.70;4.88;;;11.30;99.90;;;;;;5043916;28;20037;-71
2022/11/03 05:41:28;;;;;;;11.77;4.32;;;11.30;99.90;;;;;;5026614;28;20584;-71
2022/11/03 05:44:32;;;;;;;12.18;5.28;;;11.30;99.90;;;;;;5030435;28;20141;-72
2022/11/03 05:46:59;;;;;;;14.95;6.30;;;11.20;99.90;;;;;;5032840;28;20036;-72
2022/11/03 05:49:27;;;;;;;10.73;4.03;;;11.20;99.90;;;;;;5022762;28;20033;-73
2022/11/03 05:51:53;;;;;;;13.63;4.70;;;11.30;99.90;;;;;;5031279;28;20032;-74
2022/11/03 05:54:23;;;;;;;15.73;4.97;;;11.40;99.90;;;;;;5035240;28;20033;-72
2022/11/03 05:56:49;;;;;;;16.13;4.57;;;11.30;99.90;;;;;;5040540;28;20025;-73
2022/11/03 05:59:22;;;;;;;16.77;6.18;;;11.30;99.90;;;;;;5035638;28;20033;-74
2022/11/03 06:01:48;;;;;;;11.90;5.28;;;11.40;99.90;;;;;;5026152;28;20036;-74
2022/11/03 06:04:13;;;;;;;18.60;5.07;;;11.50;99.90;;;;;;5035899;28;20033;-74
2022/11/03 06:06:39;;;;;;;12.90;5.00;;;11.50;99.90;;;;;;5031513;28;20095;-73
2022/11/03 06:09:19;;;;;;;11.32;4.70;;;11.60;99.90;;;;;;5029816;28;20036;-72
2022/11/03 06:11:45;;;;;;;13.63;4.20;;;11.50;99.90;;;;;;5027512;28;20519;-73
2022/11/03 06:14:19;;;;;;;13.73;4.25;;;11.50;99.90;;;;;;5035640;28;20071;-73
2022/11/03 06:16:59;;;;;;;11.05;5.40;;;11.50;99.90;;;;;;5040905;28;20048;-73
2022/11/03 06:19:30;;;;;;;11.07;3.92;;;11.50;99.90;;;;;;5030816;28;20037;-73
2022/11/03 06:22:10;;;;;;;13.57;4.35;;;11.50;99.90;;;;;;5023220;28;20070;-75
2022/11/03 06:24:36;;;;;;;10.85;4.38;;;11.50;99.90;;;;;;5039050;28;20017;-73
2022/11/03 06:27:02;;;;;;;13.02;4.03;;;11.70;99.90;;;;;;5034009;28;20036;-74
2022/11/03 06:29:31;;;;;;;10.50;5.45;;;11.70;99.90;;;;;;5027682;28;20082;-74
2022/11/03 06:31:56;;;;;;;9.43;4.70;;;11.70;99.90;;;;;;5022191;28;20472;-75
2022/11/03 06:34:46;;;;;;;13.32;4.85;;;11.70;99.90;;;;;;5038289;28;20067;-75
2022/11/03 06:37:26;;;;;;;11.93;4.85;;;11.70;99.90;;;;;;5033465;28;20039;-74
2022/11/03 06:39:58;;;;;;;10.60;4.97;;;11.70;99.90;;;;;;5041915;28;20060;-75
2022/11/03 06:42:28;;;;;;;11.75;4.43;;;11.70;99.90;;;;;;5041956;28;20112;-74
2022/11/03 06:44:53;;;;;;;14.50;4.75;;;11.70;99.90;;;;;;5027661;28;20104;-75
2022/11/03 06:47:25;;;;;;;16.33;4.78;;;11.70;99.90;;;;;;5025113;28;20032;-75
2022/11/03 06:50:01;;;;;;;11.85;4.80;;;11.60;99.90;;;;;;5022048;28;20430;-72
2022/11/03 06:52:31;;;;;;;10.55;3.60;;;11.70;99.90;;;;;;5030223;28;20041;-75
2022/11/03 06:55:08;;;;;;;9.20;4.82;;;11.70;99.90;;;;;;5029670;28;20038;-74
2022/11/03 06:57:37;;;;;;;10.18;5.25;;;11.80;99.90;;;;;;5029586;28;20022;-75
2022/11/03 07:00:24;;;;;;;10.82;4.82;;;11.70;99.90;;;;;;5029248;28;20044;-74
2022/11/03 07:03:16;;;;;;;9.88;4.10;;;11.60;99.90;;;;;;5027723;28;20024;-74
2022/11/03 07:05:44;;;;;;;16.98;5.28;;;11.60;99.90;;;;;;5036789;28;20068;-75
2022/11/03 07:08:29;;;;;;;13.50;4.63;;;11.80;99.90;;;;;;5036696;28;20028;-75
2022/11/03 07:11:13;;;;;;;12.95;4.63;;;11.90;99.90;;;;;;5029140;28;20029;-75
2022/11/03 07:13:39;;;;;;;10.70;4.70;;;11.90;99.90;;;;;;5023724;28;20104;-75
2022/11/03 07:16:17;;;;;;;17.05;4.47;;;11.90;99.90;;;;;;5035096;28;20049;-75
2022/11/03 07:18:44;;;;;;;13.55;4.82;;;11.90;99.90;;;;;;5021979;28;20041;-74
2022/11/03 07:21:24;;;;;;;16.40;5.93;;;12.10;99.90;;;;;;5032632;28;20034;-74
2022/11/03 07:23:50;;;;;;;12.10;4.75;;;12.40;99.90;;;;;;5028375;28;20783;-75
2022/11/03 07:26:16;;;;;;;10.50;5.20;;;12.50;99.90;;;;;;5030478;28;20036;-74
2022/11/03 07:28:42;;;;;;;14.27;5.50;;;12.60;99.90;;;;;;5034149;28;20029;-73
2022/11/03 07:31:20;;;;;;;13.27;4.60;;;12.60;99.90;;;;;;5033795;28;20029;-74
2022/11/03 07:33:46;;;;;;;15.02;5.43;;;12.70;99.90;;;;;;5032756;28;20040;-74
2022/11/03 07:36:20;;;;;;;14.88;5.95;;;12.80;99.90;;;;;;5033978;28;20033;-73
2022/11/03 07:38:50;;;;;;;14.18;5.68;;;12.60;99.90;;;;;;5028936;28;20048;-73
2022/11/03 07:41:21;;;;;;;11.60;5.38;;;12.30;99.90;;;;;;5028760;28;20131;-73
2022/11/03 07:43:57;;;;;;;12.15;5.95;;;12.30;99.90;;;;;;5032194;28;21250;-74
2022/11/03 07:46:24;;;;;;;15.85;5.78;;;12.30;99.90;;;;;;5037208;28;20033;-73
2022/11/03 07:49:02;;;;;;;12.98;4.70;;;12.30;99.90;;;;;;5042522;28;20029;-72
2022/11/03 07:51:39;;;;;;;12.00;5.70;;;12.30;99.90;;;;;;5022053;28;20025;-75
2022/11/03 07:54:09;;;;;;;11.02;5.38;;;12.30;99.90;;;;;;5027347;28;20076;-74
2022/11/03 07:56:44;;;;;;;9.38;4.30;;;12.40;99.90;;;;;;5034607;28;20036;-74
2022/11/03 07:59:10;;;;;;;9.55;4.85;;;12.60;99.90;;;;;;5031657;28;20041;-74
2022/11/03 08:01:44;;;;;;;14.35;6.32;;;12.70;99.90;;;;;;5037108;28;20021;-74
2022/11/03 08:04:15;;;;;;;19.35;6.28;;;12.80;99.90;;;;;;5035476;28;20032;-74
2022/11/03 08:06:41;;;;;;;13.32;5.70;;;12.80;99.90;;;;;;5028360;28;20116;-74
2022/11/03 08:09:07;;;;;;;13.77;7.10;;;12.70;99.90;;;;;;5027883;28;20108;-74
2022/11/03 08:11:32;;;;;;;12.10;7.10;;;12.60;99.90;;;;;;5023589;28;20060;-74
2022/11/03 08:13:58;;;;;;;18.17;6.38;;;12.40;99.90;;;;;;5028769;28;20079;-74
2022/11/03 08:16:24;;;;;;;15.93;6.15;;;12.40;99.90;;;;;;5031669;28;20049;-74
2022/11/03 08:18:49;;;;;;;18.02;6.70;;;12.50;99.90;;;;;;5028580;28;20048;-71
2022/11/03 08:21:16;;;;;;;17.52;7.13;;;12.60;99.90;;;;;;5031938;28;20090;-71
2022/11/03 08:23:41;;;;;;;11.27;6.13;;;12.70;99.90;;;;;;5022986;28;20036;-74
2022/11/03 08:26:07;;;;;;;17.55;6.72;;;12.70;99.90;;;;;;5033156;28;20033;-74
2022/11/03 08:28:33;;;;;;;19.92;7.20;;;12.70;99.90;;;;;;5029418;28;20118;-74
2022/11/03 08:31:03;;;;;;;11.05;5.72;;;12.70;99.90;;;;;;5029720;28;20032;-74
2022/11/03 08:33:30;;;;;;;16.33;6.60;;;12.40;99.90;;;;;;5021621;28;20021;-74
2022/11/03 08:35:56;;;;;;;13.73;6.38;;;12.30;99.90;;;;;;5025842;28;20044;-71
2022/11/03 08:38:21;;;;;;;16.30;6.68;;;12.40;99.90;;;;;;5024547;28;20033;-71
2022/11/03 08:40:47;;;;;;;12.20;5.93;;;12.40;99.90;;;;;;5030988;28;20032;-74
2022/11/03 08:43:12;;;;;;;18.05;7.35;;;12.50;99.90;;;;;;5029813;28;20037;-74
2022/11/03 08:45:38;;;;;;;15.23;6.65;;;12.60;99.90;;;;;;5030990;28;20471;-74
2022/11/03 08:48:04;;;;;;;12.98;7.13;;;12.70;99.90;;;;;;5036884;28;20116;-74
2022/11/03 08:50:30;;;;;;;14.00;6.82;;;12.70;99.90;;;;;;5028734;28;20052;-72
2022/11/03 08:52:55;;;;;;;13.98;6.00;;;12.80;99.90;;;;;;5027509;28;20030;-74
2022/11/03 08:55:21;;;;;;;10.52;6.20;;;12.80;99.90;;;;;;5025942;28;20431;-71
2022/11/03 08:57:46;;;;;;;13.70;6.28;;;12.90;99.90;;;;;;5026045;28;20025;-74
2022/11/03 09:00:14;;;;;;;14.20;6.07;;;12.90;99.90;;;;;;5033331;28;20377;-74
2022/11/03 09:02:40;;;;;;;13.32;6.63;;;12.90;99.90;;;;;;5036171;28;20025;-71
2022/11/03 09:05:06;;;;;;;11.90;5.68;;;12.90;99.90;;;;;;5031458;28;20056;-74
2022/11/03 09:07:32;;;;;;;11.43;5.95;;;12.90;99.90;;;;;;5024575;28;20087;-74
2022/11/03 09:09:58;;;;;;;13.90;5.05;;;12.90;99.90;;;;;;5032982;28;21267;-74
2022/11/03 09:12:23;;;;;;;12.50;6.05;;;12.90;99.90;;;;;;5035852;28;20244;-74
2022/11/03 09:14:49;;;;;;;14.10;5.97;;;12.90;99.90;;;;;;5033384;28;20059;-74
2022/11/03 09:17:15;;;;;;;16.40;6.75;;;13.00;99.90;;;;;;5040296;28;20048;-74
2022/11/03 09:19:40;;;;;;;17.25;5.60;;;13.00;99.90;;;;;;5041948;28;20075;-74
2022/11/03 09:22:06;;;;;;;13.05;6.13;;;12.90;99.90;;;;;;5040050;28;20033;-71
2022/11/03 09:24:31;;;;;;;13.20;6.47;;;13.00;99.90;;;;;;5030277;28;20080;-74
2022/11/03 09:26:57;;;;;;;11.63;6.38;;;13.10;99.90;;;;;;5031848;28;20143;-74
2022/11/03 09:29:23;;;;;;;16.77;6.57;;;13.00;99.90;;;;;;5024280;28;20459;-74
2022/11/03 09:31:48;;;;;;;16.90;6.20;;;13.00;99.90;;;;;;5023035;28;20029;-74
2022/11/03 09:34:14;;;;;;;14.45;6.03;;;13.00;99.90;;;;;;5037849;28;20041;-74
2022/11/03 09:36:39;;;;;;;13.52;6.28;;;13.10;99.90;;;;;;5023941;28;20121;-71
2022/11/03 09:39:05;;;;;;;16.95;6.43;;;13.10;99.90;;;;;;5030624;28;20882;-75
2022/11/03 09:41:31;;;;;;;19.90;6.50;;;13.10;99.90;;;;;;5031530;28;20029;-73
2022/11/03 09:43:59;;;;;;;14.48;6.55;;;13.20;99.90;;;;;;5042132;28;20029;-74
2022/11/03 09:46:27;;;;;;;16.08;6.40;;;13.20;99.90;;;;;;5032617;28;20114;-74
2022/11/03 09:48:54;;;;;;;27.05;7.57;;;13.20;99.90;;;;;;5026368;28;20120;-74
2022/11/03 09:51:21;;;;;;;12.27;7.03;;;13.20;99.90;;;;;;5030513;28;20030;-74
2022/11/03 09:53:47;;;;;;;15.32;7.03;;;13.30;99.90;;;;;;5029624;28;20599;-74
2022/11/03 09:56:12;;;;;;;15.02;7.82;;;13.30;99.90;;;;;;5023264;28;20038;-74
2022/11/03 09:58:39;;;;;;;20.48;8.18;;;13.30;99.90;;;;;;5030166;28;20038;-74
2022/11/03 10:01:05;;;;;;;16.10;8.10;;;13.40;99.90;;;;;;5024483;28;20040;-74
2022/11/03 10:03:31;;;;;;;24.17;7.90;;;13.50;99.90;;;;;;5036408;28;20025;-74
2022/11/03 10:05:57;;;;;;;14.88;6.88;;;13.60;99.90;;;;;;5036987;28;20475;-73
2022/11/03 10:08:26;;;;;;;14.98;6.75;;;13.60;99.90;;;;;;5034494;28;20075;-73
2022/11/03 10:10:53;;;;;;;17.15;7.03;;;13.60;99.90;;;;;;5036180;28;20074;-73
2022/11/03 10:13:43;;;;;;;16.55;5.50;;;13.60;99.90;;;;;;5024182;28;20060;-73
2022/11/03 10:16:13;;;;;;;13.27;5.18;;;13.70;99.90;;;;;;5023604;28;20505;-74
2022/11/03 10:18:39;;;;;;;14.05;6.03;;;13.80;99.90;;;;;;5032561;28;20056;-74
2022/11/03 10:21:11;;;;;;;14.38;5.30;;;13.80;99.90;;;;;;5024822;28;20037;-74
2022/11/03 10:23:37;;;;;;;10.23;6.45;;;13.90;99.90;;;;;;5029048;28;20527;-74
2022/11/03 10:26:09;;;;;;;13.05;5.03;;;14.00;99.90;;;;;;5028362;28;20034;-74
2022/11/03 10:28:36;;;;;;;12.05;5.63;;;13.90;99.90;;;;;;5025325;28;20064;-73
2022/11/03 10:31:07;;;;;;;11.93;5.32;;;13.90;99.90;;;;;;5031983;28;20040;-73
2022/11/03 10:33:50;;;;;;;17.50;5.90;;;14.00;99.90;;;;;;5026130;28;20021;-73
2022/11/03 10:36:15;;;;;;;16.65;5.65;;;14.00;99.90;;;;;;5028597;28;20021;-74
2022/11/03 10:38:44;;;;;;;21.67;7.20;;;14.00;99.90;;;;;;5024457;28;20041;-73
2022/11/03 10:41:16;;;;;;;13.65;5.45;;;14.00;99.90;;;;;;5024749;28;20075;-74
2022/11/03 10:43:44;;;;;;;17.90;5.95;;;14.00;99.90;;;;;;5034964;28;20108;-73
2022/11/03 10:46:21;;;;;;;17.20;6.30;;;13.90;99.90;;;;;;5035992;28;20037;-74
2022/11/03 10:49:02;;;;;;;15.15;5.70;;;13.90;99.90;;;;;;5036080;28;20025;-73
2022/11/03 10:51:30;;;;;;;15.35;5.85;;;13.90;99.90;;;;;;5031109;28;20124;-74
2022/11/03 10:53:56;;;;;;;13.65;5.50;;;13.90;99.90;;;;;;5027566;28;20033;-73
2022/11/03 10:56:22;;;;;;;15.50;6.57;;;13.90;99.90;;;;;;5026695;28;20056;-74
2022/11/03 10:58:48;;;;;;;10.18;5.55;;;14.00;99.90;;;;;;5042870;28;20476;-73
2022/11/03 11:01:13;;;;;;;13.85;5.25;;;14.10;99.90;;;;;;5036804;28;20128;-73
2022/11/03 11:03:42;;;;;;;13.02;5.68;;;14.30;99.90;;;;;;5030092;28;20148;-74
2022/11/03 11:06:28;;;;;;;21.42;10.73;;;14.30;99.90;;;;;;5025549;28;20037;-74
2022/11/03 11:09:00;;;;;;;13.57;5.97;;;14.30;99.90;;;;;;5038600;28;20055;-73
2022/11/03 11:11:26;;;;;;;10.93;5.15;;;14.40;99.90;;;;;;5040200;28;20498;-73
2022/11/03 11:14:20;;;;;;;11.48;5.00;;;14.40;99.90;;;;;;5036593;28;20036;-74
2022/11/03 11:16:54;;;;;;;13.18;5.30;;;14.50;99.90;;;;;;5033225;28;20058;-74
2022/11/03 11:19:21;;;;;;;16.35;6.93;;;14.70;99.90;;;;;;5024610;28;20068;-74
2022/11/03 11:21:48;;;;;;;19.02;9.90;;;14.90;99.90;;;;;;5037434;28;20367;-73
2022/11/03 11:24:43;;;;;;;14.73;6.10;;;15.00;99.90;;;;;;5031353;28;20045;-73
2022/11/03 11:27:33;;;;;;;15.43;6.13;;;15.00;99.90;;;;;;5036544;28;20124;-73
2022/11/03 11:29:59;;;;;;;13.73;8.40;;;15.00;99.90;;;;;;5028690;28;20095;-73
2022/11/03 11:32:43;;;;;;;12.82;5.60;;;15.00;99.90;;;;;;5027056;28;20345;-73
2022/11/03 11:35:30;;;;;;;28.23;9.30;;;14.90;99.90;;;;;;5031849;28;20079;-71
2022/11/03 11:38:15;;;;;;;19.38;10.20;;;15.00;99.90;;;;;;4980291;28;20715;-73
2022/11/03 11:40:50;;;;;;;17.77;12.93;;;15.10;99.90;;;;;;5031972;28;20102;-73
2022/11/03 11:43:19;;;;;;;14.35;6.63;;;15.10;99.90;;;;;;5034597;28;20079;-73
2022/11/03 11:46:22;;;;;;;11.93;6.15;;;15.30;99.90;;;;;;5037990;28;20086;-73
2022/11/03 11:49:02;;;;;;;14.52;5.80;;;15.20;99.90;;;;;;5032167;28;20352;-73
2022/11/03 11:51:35;;;;;;;14.70;6.13;;;15.10;99.90;;;;;;5033805;28;20036;-74
2022/11/03 11:54:07;;;;;;;15.48;6.00;;;15.30;99.90;;;;;;5030289;28;20037;-73
2022/11/03 11:56:32;;;;;;;16.17;6.95;;;15.20;99.90;;;;;;5029798;28;20510;-73
2022/11/03 11:58:58;;;;;;;20.88;7.25;;;15.50;99.90;;;;;;5024827;28;20077;-74
2022/11/03 12:01:34;;;;;;;14.25;5.22;;;15.70;99.90;;;;;;5030558;28;20033;-74
2022/11/03 12:04:16;;;;;;;14.00;5.47;;;15.90;99.90;;;;;;5030484;28;20032;-74
2022/11/03 12:06:43;;;;;;;11.63;5.80;;;15.70;99.90;;;;;;5032159;28;20036;-74
2022/11/03 12:09:11;;;;;;;12.15;6.05;;;15.80;99.90;;;;;;5023543;28;20403;-74
2022/11/03 12:12:01;;;;;;;13.07;6.50;;;15.70;99.90;;;;;;5030718;28;20025;-73
2022/11/03 12:14:37;;;;;;;15.77;5.68;;;15.70;99.90;;;;;;5021302;28;20037;-74
2022/11/03 12:17:15;;;;;;;16.77;5.57;;;15.70;99.90;;;;;;5033606;28;20057;-73
2022/11/03 12:19:41;;;;;;;19.08;11.55;;;15.70;99.90;;;;;;5027228;28;20124;-73
2022/11/03 12:22:31;;;;;;;11.10;5.63;;;15.80;99.90;;;;;;5033577;28;20104;-74
2022/11/03 12:25:03;;;;;;;16.00;7.40;;;15.90;99.90;;;;;;5024827;28;20045;-74
2022/11/03 12:27:28;;;;;;;14.82;5.82;;;15.90;99.90;;;;;;5043934;28;20064;-74
2022/11/03 12:30:15;;;;;;;16.13;6.10;;;15.90;99.90;;;;;;5034733;28;20071;-74
2022/11/03 12:32:41;;;;;;;14.55;6.32;;;15.70;99.90;;;;;;5040052;28;20038;-74
2022/11/03 12:35:08;;;;;;;13.18;6.18;;;15.80;99.90;;;;;;5032032;28;20360;-74
2022/11/03 12:37:33;;;;;;;16.55;5.50;;;15.80;99.90;;;;;;5035645;28;20136;-74
2022/11/03 12:39:59;;;;;;;13.23;5.43;;;15.90;99.90;;;;;;5045857;28;20151;-74
2022/11/03 12:42:25;;;;;;;14.18;6.30;;;15.80;99.90;;;;;;5046235;28;20106;-74
2022/11/03 12:44:51;;;;;;;14.82;5.63;;;15.90;99.90;;;;;;5036052;28;20163;-74
2022/11/03 12:47:17;;;;;;;16.15;5.68;;;15.90;99.90;;;;;;5037080;28;20110;-74
2022/11/03 12:49:42;;;;;;;19.13;6.03;;;16.00;99.90;;;;;;5037128;28;20067;-74
2022/11/03 12:52:09;;;;;;;17.15;6.15;;;15.90;99.90;;;;;;5036312;28;20163;-73
2022/11/03 12:54:35;;;;;;;16.67;5.45;;;16.10;99.90;;;;;;5039795;28;20037;-73
2022/11/03 12:57:00;;;;;;;17.15;5.95;;;16.20;99.90;;;;;;5036505;28;20075;-73
2022/11/03 12:59:27;;;;;;;14.90;6.63;;;16.30;99.90;;;;;;5033312;28;20252;-73
2022/11/03 13:01:53;;;;;;;14.40;6.03;;;16.30;99.90;;;;;;5030256;28;20034;-74
2022/11/03 13:04:18;;;;;;;17.63;6.28;;;16.30;99.90;;;;;;5025262;28;20683;-73
2022/11/03 13:06:44;;;;;;;12.48;5.63;;;16.30;99.90;;;;;;5041518;28;20114;-73
2022/11/03 13:09:10;;;;;;;17.00;6.38;;;16.20;99.90;;;;;;5043069;28;20025;-73
2022/11/03 13:14:20;;;;;;;16.63;6.03;;;16.30;99.90;;;;;;5033451;28;20033;-73